sensor_id;sensor_type;location;lat;lon;timestamp;temperature;humidity
23717;DHT22;22094;52.130;5.598;2024-01-15T00:01:14;1.30;95.20
23717;DHT22;22094;52.130;5.598;2024-01-15T00:03:39;1.30;88.50
23717;DHT22;22094;52.130;5.598;2024-01-15T00:06:05;1.20;86.90
23717;DHT22;22094;52.130;5.598;2024-01-15T00:08:30;1.20;84.80
23717;DHT22;22094;52.130;5.598;2024-01-15T00:10:56;1.20;66.50
23717;DHT22;22094;52.130;5.598;2024-01-15T00:13:22;1.00;47.10
23717;DHT22;22094;52.130;5.598;2024-01-15T00:15:47;1.00;50.20
23717;DHT22;22094;52.130;5.598;2024-01-15T00:18:13;0.90;58.70
23717;DHT22;22094;52.130;5.598;2024-01-15T00:20:38;0.90;75.50
23717;DHT22;22094;52.130;5.598;2024-01-15T00:23:04;1.60;80.20
23717;DHT22;22094;52.130;5.598;2024-01-15T00:25:30;1.10;64.90
23717;DHT22;22094;52.130;5.598;2024-01-15T00:27:55;1.10;51.30
23717;DHT22;22094;52.130;5.598;2024-01-15T00:30:21;1.00;41.00
23717;DHT22;22094;52.130;5.598;2024-01-15T00:32:46;1.00;39.40
23717;DHT22;22094;52.130;5.598;2024-01-15T00:35:12;1.00;36.50
23717;DHT22;22094;52.130;5.598;2024-01-15T00:37:37;1.00;43.00
23717;DHT22;22094;52.130;5.598;2024-01-15T00:40:04;0.90;27.00
23717;DHT22;22094;52.130;5.598;2024-01-15T00:42:30;0.90;27.80
23717;DHT22;22094;52.130;5.598;2024-01-15T00:44:55;0.90;30.90
23717;DHT22;22094;52.130;5.598;2024-01-15T00:47:21;0.90;36.10
23717;DHT22;22094;52.130;5.598;2024-01-15T00:49:46;0.90;38.10
23717;DHT22;22094;52.130;5.598;2024-01-15T00:52:12;0.90;25.60
23717;DHT22;22094;52.130;5.598;2024-01-15T00:54:37;0.90;33.40
23717;DHT22;22094;52.130;5.598;2024-01-15T00:57:03;0.90;34.60
23717;DHT22;22094;52.130;5.598;2024-01-15T00:59:29;0.90;35.30
23717;DHT22;22094;52.130;5.598;2024-01-15T01:01:54;0.90;28.60
23717;DHT22;22094;52.130;5.598;2024-01-15T01:04:20;0.90;27.30
23717;DHT22;22094;52.130;5.598;2024-01-15T01:06:45;0.90;1.00
23717;DHT22;22094;52.130;5.598;2024-01-15T01:09:11;0.90;1.00
23717;DHT22;22094;52.130;5.598;2024-01-15T01:11:36;0.80;1.00
23717;DHT22;22094;52.130;5.598;2024-01-15T01:14:02;0.80;1.00
23717;DHT22;22094;52.130;5.598;2024-01-15T01:16:28;0.80;1.00
23717;DHT22;22094;52.130;5.598;2024-01-15T01:18:54;0.70;1.00
23717;DHT22;22094;52.130;5.598;2024-01-15T01:21:19;0.70;1.00
23717;DHT22;22094;52.130;5.598;2024-01-15T01:23:45;0.70;1.00
23717;DHT22;22094;52.130;5.598;2024-01-15T01:26:10;0.70;1.00
23717;DHT22;22094;52.130;5.598;2024-01-15T01:28:36;0.70;1.00
23717;DHT22;22094;52.130;5.598;2024-01-15T01:31:01;0.60;1.00
23717;DHT22;22094;52.130;5.598;2024-01-15T01:33:27;0.60;1.00
23717;DHT22;22094;52.130;5.598;2024-01-15T01:35:52;0.60;1.00
23717;DHT22;22094;52.130;5.598;2024-01-15T01:38:18;0.60;1.00
23717;DHT22;22094;52.130;5.598;2024-01-15T01:40:44;0.50;1.00
23717;DHT22;22094;52.130;5.598;2024-01-15T01:43:10;0.50;1.00
23717;DHT22;22094;52.130;5.598;2024-01-15T01:45:36;0.60;1.00
23717;DHT22;22094;52.130;5.598;2024-01-15T01:48:01;0.60;1.00
23717;DHT22;22094;52.130;5.598;2024-01-15T01:50:29;0.60;1.00
23717;DHT22;22094;52.130;5.598;2024-01-15T01:52:55;1.10;1.00
23717;DHT22;22094;52.130;5.598;2024-01-15T01:55:22;0.60;1.00
23717;DHT22;22094;52.130;5.598;2024-01-15T01:57:50;0.60;1.00
23717;DHT22;22094;52.130;5.598;2024-01-15T02:00:16;0.60;1.00
23717;DHT22;22094;52.130;5.598;2024-01-15T02:02:42;0.60;1.00
23717;DHT22;22094;52.130;5.598;2024-01-15T02:05:08;0.60;1.00
23717;DHT22;22094;52.130;5.598;2024-01-15T02:07:35;0.70;1.00
23717;DHT22;22094;52.130;5.598;2024-01-15T02:10:01;0.50;1.00
23717;DHT22;22094;52.130;5.598;2024-01-15T02:12:27;0.50;1.00
23717;DHT22;22094;52.130;5.598;2024-01-15T02:14:52;1.40;1.00
23717;DHT22;22094;52.130;5.598;2024-01-15T02:17:18;0.50;1.00
23717;DHT22;22094;52.130;5.598;2024-01-15T02:19:43;0.60;1.00
23717;DHT22;22094;52.130;5.598;2024-01-15T02:22:09;0.80;1.00
23717;DHT22;22094;52.130;5.598;2024-01-15T02:24:35;0.90;1.00
23717;DHT22;22094;52.130;5.598;2024-01-15T02:27:00;1.00;1.00
23717;DHT22;22094;52.130;5.598;2024-01-15T02:29:26;1.00;1.00
23717;DHT22;22094;52.130;5.598;2024-01-15T02:31:51;1.10;1.00
23717;DHT22;22094;52.130;5.598;2024-01-15T02:34:17;1.10;2.60
23717;DHT22;22094;52.130;5.598;2024-01-15T02:36:42;1.10;2.80
23717;DHT22;22094;52.130;5.598;2024-01-15T02:39:08;1.10;18.50
23717;DHT22;22094;52.130;5.598;2024-01-15T02:41:33;1.10;26.60
23717;DHT22;22094;52.130;5.598;2024-01-15T02:43:59;1.20;39.30
23717;DHT22;22094;52.130;5.598;2024-01-15T02:46:25;1.20;29.50
23717;DHT22;22094;52.130;5.598;2024-01-15T02:48:50;1.20;42.70
23717;DHT22;22094;52.130;5.598;2024-01-15T02:51:16;2.40;30.00
23717;DHT22;22094;52.130;5.598;2024-01-15T02:53:41;1.30;32.80
23717;DHT22;22094;52.130;5.598;2024-01-15T02:56:07;1.30;25.10
23717;DHT22;22094;52.130;5.598;2024-01-15T02:58:33;1.30;26.50
23717;DHT22;22094;52.130;5.598;2024-01-15T03:00:58;1.20;19.30
23717;DHT22;22094;52.130;5.598;2024-01-15T03:03:24;1.30;26.30
23717;DHT22;22094;52.130;5.598;2024-01-15T03:05:49;0.90;26.80
23717;DHT22;22094;52.130;5.598;2024-01-15T03:08:15;1.40;19.30
23717;DHT22;22094;52.130;5.598;2024-01-15T03:10:40;1.30;5.30
23717;DHT22;22094;52.130;5.598;2024-01-15T03:13:06;1.30;1.00
23717;DHT22;22094;52.130;5.598;2024-01-15T03:15:31;1.10;1.00
23717;DHT22;22094;52.130;5.598;2024-01-15T03:17:57;1.20;1.00
23717;DHT22;22094;52.130;5.598;2024-01-15T03:20:22;1.20;1.00
23717;DHT22;22094;52.130;5.598;2024-01-15T03:22:48;1.20;1.00
23717;DHT22;22094;52.130;5.598;2024-01-15T03:25:14;1.20;1.00
23717;DHT22;22094;52.130;5.598;2024-01-15T03:27:40;1.30;1.00
23717;DHT22;22094;52.130;5.598;2024-01-15T03:30:06;1.30;1.00
23717;DHT22;22094;52.130;5.598;2024-01-15T03:32:31;1.40;1.00
23717;DHT22;22094;52.130;5.598;2024-01-15T03:34:57;1.30;1.00
23717;DHT22;22094;52.130;5.598;2024-01-15T03:37:26;1.90;15.30
23717;DHT22;22094;52.130;5.598;2024-01-15T03:39:52;2.00;5.40
23717;DHT22;22094;52.130;5.598;2024-01-15T03:42:17;1.00;6.20
23717;DHT22;22094;52.130;5.598;2024-01-15T03:44:43;1.80;27.20
23717;DHT22;22094;52.130;5.598;2024-01-15T03:47:09;1.30;40.20
23717;DHT22;22094;52.130;5.598;2024-01-15T03:49:34;2.00;49.00
23717;DHT22;22094;52.130;5.598;2024-01-15T03:52:00;2.00;45.40
23717;DHT22;22094;52.130;5.598;2024-01-15T03:54:26;2.20;34.80
23717;DHT22;22094;52.130;5.598;2024-01-15T03:56:52;2.80;42.60
23717;DHT22;22094;52.130;5.598;2024-01-15T03:59:17;1.30;49.80
23717;DHT22;22094;52.130;5.598;2024-01-15T04:01:50;2.60;44.10
23717;DHT22;22094;52.130;5.598;2024-01-15T04:04:17;1.90;39.10
23717;DHT22;22094;52.130;5.598;2024-01-15T04:06:42;2.10;27.80
23717;DHT22;22094;52.130;5.598;2024-01-15T04:09:08;2.10;27.60
23717;DHT22;22094;52.130;5.598;2024-01-15T04:11:36;2.30;27.20
23717;DHT22;22094;52.130;5.598;2024-01-15T04:14:02;1.00;23.90
23717;DHT22;22094;52.130;5.598;2024-01-15T04:16:27;1.20;33.60
23717;DHT22;22094;52.130;5.598;2024-01-15T04:18:53;2.40;27.70
23717;DHT22;22094;52.130;5.598;2024-01-15T04:21:19;1.20;34.90
23717;DHT22;22094;52.130;5.598;2024-01-15T04:23:44;1.00;41.40
23717;DHT22;22094;52.130;5.598;2024-01-15T04:26:10;1.00;39.30
23717;DHT22;22094;52.130;5.598;2024-01-15T04:28:36;1.00;46.40
23717;DHT22;22094;52.130;5.598;2024-01-15T04:31:01;1.40;40.00
23717;DHT22;22094;52.130;5.598;2024-01-15T04:33:27;2.20;49.10
23717;DHT22;22094;52.130;5.598;2024-01-15T04:35:52;1.90;55.30
23717;DHT22;22094;52.130;5.598;2024-01-15T04:38:18;1.50;62.50
23717;DHT22;22094;52.130;5.598;2024-01-15T04:40:47;1.00;65.90
23717;DHT22;22094;52.130;5.598;2024-01-15T04:43:14;1.70;68.60
23717;DHT22;22094;52.130;5.598;2024-01-15T04:45:40;1.50;81.80
23717;DHT22;22094;52.130;5.598;2024-01-15T04:48:06;2.20;89.40
23717;DHT22;22094;52.130;5.598;2024-01-15T04:50:31;1.00;92.10
23717;DHT22;22094;52.130;5.598;2024-01-15T04:52:57;1.10;98.80
23717;DHT22;22094;52.130;5.598;2024-01-15T04:55:23;0.60;94.20
23717;DHT22;22094;52.130;5.598;2024-01-15T04:57:49;1.40;93.90
23717;DHT22;22094;52.130;5.598;2024-01-15T05:00:15;1.20;93.20
23717;DHT22;22094;52.130;5.598;2024-01-15T05:02:41;0.90;96.90
23717;DHT22;22094;52.130;5.598;2024-01-15T05:05:09;2.20;99.90
23717;DHT22;22094;52.130;5.598;2024-01-15T05:07:35;0.70;95.30
23717;DHT22;22094;52.130;5.598;2024-01-15T05:10:06;1.80;91.00
23717;DHT22;22094;52.130;5.598;2024-01-15T05:12:33;0.90;94.40
23717;DHT22;22094;52.130;5.598;2024-01-15T05:14:58;1.40;98.40
23717;DHT22;22094;52.130;5.598;2024-01-15T05:17:24;1.50;97.50
23717;DHT22;22094;52.130;5.598;2024-01-15T05:19:49;0.90;95.20
23717;DHT22;22094;52.130;5.598;2024-01-15T05:22:15;1.00;97.50
23717;DHT22;22094;52.130;5.598;2024-01-15T05:24:41;1.90;96.10
23717;DHT22;22094;52.130;5.598;2024-01-15T05:27:07;1.20;88.60
23717;DHT22;22094;52.130;5.598;2024-01-15T05:29:32;0.90;79.20
23717;DHT22;22094;52.130;5.598;2024-01-15T05:31:58;1.50;71.70
23717;DHT22;22094;52.130;5.598;2024-01-15T05:34:24;2.20;80.40
23717;DHT22;22094;52.130;5.598;2024-01-15T05:36:49;1.60;82.60
23717;DHT22;22094;52.130;5.598;2024-01-15T05:39:15;2.20;70.70
23717;DHT22;22094;52.130;5.598;2024-01-15T05:41:41;2.20;66.90
23717;DHT22;22094;52.130;5.598;2024-01-15T05:44:06;1.70;62.20
23717;DHT22;22094;52.130;5.598;2024-01-15T05:46:32;1.90;62.20
23717;DHT22;22094;52.130;5.598;2024-01-15T05:48:58;1.10;59.90
23717;DHT22;22094;52.130;5.598;2024-01-15T05:51:23;1.10;57.70
23717;DHT22;22094;52.130;5.598;2024-01-15T05:53:49;1.90;61.60
23717;DHT22;22094;52.130;5.598;2024-01-15T05:56:14;1.50;57.10
23717;DHT22;22094;52.130;5.598;2024-01-15T05:58:42;1.10;55.70
23717;DHT22;22094;52.130;5.598;2024-01-15T06:01:08;2.40;56.10
23717;DHT22;22094;52.130;5.598;2024-01-15T06:03:34;2.00;48.10
23717;DHT22;22094;52.130;5.598;2024-01-15T06:06:00;1.00;52.10
23717;DHT22;22094;52.130;5.598;2024-01-15T06:08:26;1.40;55.90
23717;DHT22;22094;52.130;5.598;2024-01-15T06:10:53;2.20;49.70
23717;DHT22;22094;52.130;5.598;2024-01-15T06:13:18;1.20;37.90
23717;DHT22;22094;52.130;5.598;2024-01-15T06:15:44;1.10;42.80
23717;DHT22;22094;52.130;5.598;2024-01-15T06:18:09;1.20;42.20
23717;DHT22;22094;52.130;5.598;2024-01-15T06:20:35;1.90;38.60
23717;DHT22;22094;52.130;5.598;2024-01-15T06:23:01;0.90;47.70
23717;DHT22;22094;52.130;5.598;2024-01-15T06:25:26;1.10;48.30
23717;DHT22;22094;52.130;5.598;2024-01-15T06:27:52;1.70;42.80
23717;DHT22;22094;52.130;5.598;2024-01-15T06:30:17;1.20;47.50
23717;DHT22;22094;52.130;5.598;2024-01-15T06:32:43;1.00;70.20
23717;DHT22;22094;52.130;5.598;2024-01-15T06:35:09;1.90;74.70
23717;DHT22;22094;52.130;5.598;2024-01-15T06:37:35;1.00;85.30
23717;DHT22;22094;52.130;5.598;2024-01-15T06:40:01;1.70;90.60
23717;DHT22;22094;52.130;5.598;2024-01-15T06:42:27;1.10;92.20
23717;DHT22;22094;52.130;5.598;2024-01-15T06:44:52;1.40;94.60
23717;DHT22;22094;52.130;5.598;2024-01-15T06:47:18;0.80;96.30
23717;DHT22;22094;52.130;5.598;2024-01-15T06:49:44;1.00;99.90
23717;DHT22;22094;52.130;5.598;2024-01-15T06:52:10;1.70;99.90
23717;DHT22;22094;52.130;5.598;2024-01-15T06:54:36;0.90;99.90
23717;DHT22;22094;52.130;5.598;2024-01-15T06:57:02;2.00;99.90
23717;DHT22;22094;52.130;5.598;2024-01-15T06:59:28;1.70;99.90
23717;DHT22;22094;52.130;5.598;2024-01-15T07:01:53;0.80;99.90
23717;DHT22;22094;52.130;5.598;2024-01-15T07:04:20;1.30;99.90
23717;DHT22;22094;52.130;5.598;2024-01-15T07:06:45;1.90;99.90
23717;DHT22;22094;52.130;5.598;2024-01-15T07:09:13;0.80;99.90
23717;DHT22;22094;52.130;5.598;2024-01-15T07:11:38;1.80;99.90
23717;DHT22;22094;52.130;5.598;2024-01-15T07:14:04;1.90;99.90
23717;DHT22;22094;52.130;5.598;2024-01-15T07:16:29;1.00;99.90
23717;DHT22;22094;52.130;5.598;2024-01-15T07:18:55;0.90;99.90
23717;DHT22;22094;52.130;5.598;2024-01-15T07:21:21;0.70;99.90
23717;DHT22;22094;52.130;5.598;2024-01-15T07:23:46;1.90;99.90
23717;DHT22;22094;52.130;5.598;2024-01-15T07:26:13;1.80;99.90
23717;DHT22;22094;52.130;5.598;2024-01-15T07:28:38;2.20;99.90
23717;DHT22;22094;52.130;5.598;2024-01-15T07:31:04;1.70;99.90
23717;DHT22;22094;52.130;5.598;2024-01-15T07:33:31;1.40;99.90
23717;DHT22;22094;52.130;5.598;2024-01-15T07:35:57;1.80;99.90
23717;DHT22;22094;52.130;5.598;2024-01-15T07:38:23;1.30;99.90
23717;DHT22;22094;52.130;5.598;2024-01-15T07:40:49;2.10;99.90
23717;DHT22;22094;52.130;5.598;2024-01-15T07:43:15;1.20;99.90
23717;DHT22;22094;52.130;5.598;2024-01-15T07:45:40;0.90;99.90
23717;DHT22;22094;52.130;5.598;2024-01-15T07:48:06;1.00;99.90
23717;DHT22;22094;52.130;5.598;2024-01-15T07:50:32;2.20;99.90
23717;DHT22;22094;52.130;5.598;2024-01-15T07:52:57;0.80;99.90
23717;DHT22;22094;52.130;5.598;2024-01-15T07:55:23;1.90;99.90
23717;DHT22;22094;52.130;5.598;2024-01-15T07:57:49;1.10;99.90
23717;DHT22;22094;52.130;5.598;2024-01-15T08:00:15;1.10;99.90
23717;DHT22;22094;52.130;5.598;2024-01-15T08:02:41;1.10;99.90
23717;DHT22;22094;52.130;5.598;2024-01-15T08:05:06;2.00;99.90
23717;DHT22;22094;52.130;5.598;2024-01-15T08:07:32;1.10;99.90
23717;DHT22;22094;52.130;5.598;2024-01-15T08:09:58;2.00;99.90
23717;DHT22;22094;52.130;5.598;2024-01-15T08:12:23;1.80;99.90
23717;DHT22;22094;52.130;5.598;2024-01-15T08:14:49;1.80;99.90
23717;DHT22;22094;52.130;5.598;2024-01-15T08:17:15;1.20;99.90
23717;DHT22;22094;52.130;5.598;2024-01-15T08:19:42;1.10;99.90
23717;DHT22;22094;52.130;5.598;2024-01-15T08:22:07;1.10;99.90
23717;DHT22;22094;52.130;5.598;2024-01-15T08:24:33;1.60;99.90
23717;DHT22;22094;52.130;5.598;2024-01-15T08:26:59;1.70;99.90
23717;DHT22;22094;52.130;5.598;2024-01-15T08:29:24;1.20;99.90
23717;DHT22;22094;52.130;5.598;2024-01-15T08:31:50;1.40;99.90
23717;DHT22;22094;52.130;5.598;2024-01-15T08:34:16;0.90;99.90
23717;DHT22;22094;52.130;5.598;2024-01-15T08:36:41;1.70;99.90
23717;DHT22;22094;52.130;5.598;2024-01-15T08:39:07;0.90;99.90
23717;DHT22;22094;52.130;5.598;2024-01-15T08:41:34;1.00;99.90
23717;DHT22;22094;52.130;5.598;2024-01-15T08:44:00;1.60;99.90
23717;DHT22;22094;52.130;5.598;2024-01-15T08:46:25;1.10;99.90
23717;DHT22;22094;52.130;5.598;2024-01-15T08:48:51;1.10;99.90
23717;DHT22;22094;52.130;5.598;2024-01-15T08:51:16;1.00;99.90
23717;DHT22;22094;52.130;5.598;2024-01-15T08:53:44;2.00;99.90
23717;DHT22;22094;52.130;5.598;2024-01-15T08:56:09;1.10;99.90
23717;DHT22;22094;52.130;5.598;2024-01-15T08:58:35;1.10;99.90
23717;DHT22;22094;52.130;5.598;2024-01-15T09:01:00;1.30;99.90
23717;DHT22;22094;52.130;5.598;2024-01-15T09:03:26;1.50;99.90
23717;DHT22;22094;52.130;5.598;2024-01-15T09:05:52;1.10;99.90
23717;DHT22;22094;52.130;5.598;2024-01-15T09:08:17;2.20;99.90
23717;DHT22;22094;52.130;5.598;2024-01-15T09:10:43;2.00;99.90
23717;DHT22;22094;52.130;5.598;2024-01-15T09:13:09;2.40;99.90
23717;DHT22;22094;52.130;5.598;2024-01-15T09:15:34;1.60;99.90
23717;DHT22;22094;52.130;5.598;2024-01-15T09:18:00;1.30;99.90
23717;DHT22;22094;52.130;5.598;2024-01-15T09:20:27;2.00;99.90
23717;DHT22;22094;52.130;5.598;2024-01-15T09:22:53;1.90;99.90
23717;DHT22;22094;52.130;5.598;2024-01-15T09:25:19;1.60;99.90
23717;DHT22;22094;52.130;5.598;2024-01-15T09:27:45;2.20;97.90
23717;DHT22;22094;52.130;5.598;2024-01-15T09:30:11;2.50;84.30
23717;DHT22;22094;52.130;5.598;2024-01-15T09:32:37;1.80;60.10
23717;DHT22;22094;52.130;5.598;2024-01-15T09:35:03;2.70;5.10
23717;DHT22;22094;52.130;5.598;2024-01-15T09:37:29;1.60;1.00
23717;DHT22;22094;52.130;5.598;2024-01-15T09:39:54;2.70;1.00
23717;DHT22;22094;52.130;5.598;2024-01-15T09:42:23;1.70;1.00
23717;DHT22;22094;52.130;5.598;2024-01-15T09:44:50;1.00;1.00
23717;DHT22;22094;52.130;5.598;2024-01-15T09:47:17;1.20;1.00
23717;DHT22;22094;52.130;5.598;2024-01-15T09:49:44;2.10;1.00
23717;DHT22;22094;52.130;5.598;2024-01-15T09:52:11;1.00;1.00
23717;DHT22;22094;52.130;5.598;2024-01-15T09:54:37;1.90;1.00
23717;DHT22;22094;52.130;5.598;2024-01-15T09:57:04;0.80;1.00
23717;DHT22;22094;52.130;5.598;2024-01-15T09:59:30;1.70;1.00
23717;DHT22;22094;52.130;5.598;2024-01-15T10:02:00;2.70;12.00
23717;DHT22;22094;52.130;5.598;2024-01-15T11:42:47;1.90;1.00
23717;DHT22;22094;52.130;5.598;2024-01-15T11:48:57;2.30;1.00
23717;DHT22;22094;52.130;5.598;2024-01-15T12:02:03;2.80;1.00
23717;DHT22;22094;52.130;5.598;2024-01-15T12:04:29;2.50;1.00
23717;DHT22;22094;52.130;5.598;2024-01-15T12:06:55;2.80;99.90
23717;DHT22;22094;52.130;5.598;2024-01-15T12:09:21;3.90;1.00
23717;DHT22;22094;52.130;5.598;2024-01-15T12:11:53;3.70;1.00
23717;DHT22;22094;52.130;5.598;2024-01-15T12:14:21;3.40;99.90
23717;DHT22;22094;52.130;5.598;2024-01-15T12:16:47;3.40;1.00
23717;DHT22;22094;52.130;5.598;2024-01-15T12:19:16;2.80;99.90
23717;DHT22;22094;52.130;5.598;2024-01-15T12:49:25;2.40;1.00
23717;DHT22;22094;52.130;5.598;2024-01-15T12:52:22;2.60;1.00
23717;DHT22;22094;52.130;5.598;2024-01-15T12:55:11;2.10;1.00
23717;DHT22;22094;52.130;5.598;2024-01-15T12:57:55;2.40;1.00
23717;DHT22;22094;52.130;5.598;2024-01-15T13:00:46;3.20;1.00
23717;DHT22;22094;52.130;5.598;2024-01-15T13:03:15;2.20;1.00
23717;DHT22;22094;52.130;5.598;2024-01-15T13:05:44;1.80;1.00
23717;DHT22;22094;52.130;5.598;2024-01-15T13:08:23;1.80;1.00
23717;DHT22;22094;52.130;5.598;2024-01-15T13:10:52;2.80;1.00
23717;DHT22;22094;52.130;5.598;2024-01-15T13:13:18;3.20;1.00
23717;DHT22;22094;52.130;5.598;2024-01-15T13:15:43;2.70;1.00
23717;DHT22;22094;52.130;5.598;2024-01-15T13:18:09;2.10;1.00
23717;DHT22;22094;52.130;5.598;2024-01-15T13:20:35;2.60;1.00
23717;DHT22;22094;52.130;5.598;2024-01-15T13:23:01;1.90;99.90
23717;DHT22;22094;52.130;5.598;2024-01-15T13:25:29;1.80;1.00
23717;DHT22;22094;52.130;5.598;2024-01-15T13:27:55;1.50;99.90
23717;DHT22;22094;52.130;5.598;2024-01-15T13:30:20;2.30;1.00
23717;DHT22;22094;52.130;5.598;2024-01-15T13:32:46;2.80;1.00
23717;DHT22;22094;52.130;5.598;2024-01-15T13:35:12;2.70;1.00
23717;DHT22;22094;52.130;5.598;2024-01-15T13:37:39;1.70;1.00
23717;DHT22;22094;52.130;5.598;2024-01-15T13:40:07;2.20;1.00
23717;DHT22;22094;52.130;5.598;2024-01-15T13:42:35;1.80;1.00
23717;DHT22;22094;52.130;5.598;2024-01-15T13:45:05;2.50;1.00
23717;DHT22;22094;52.130;5.598;2024-01-15T13:47:31;1.90;1.00
23717;DHT22;22094;52.130;5.598;2024-01-15T13:49:58;2.50;1.00
23717;DHT22;22094;52.130;5.598;2024-01-15T13:52:24;1.90;1.00
23717;DHT22;22094;52.130;5.598;2024-01-15T13:54:50;2.70;1.00
23717;DHT22;22094;52.130;5.598;2024-01-15T13:57:18;2.70;1.00
23717;DHT22;22094;52.130;5.598;2024-01-15T13:59:44;1.80;99.90
23717;DHT22;22094;52.130;5.598;2024-01-15T14:02:10;2.20;99.90
23717;DHT22;22094;52.130;5.598;2024-01-15T14:04:37;2.90;1.00
23717;DHT22;22094;52.130;5.598;2024-01-15T14:07:04;3.20;1.00
23717;DHT22;22094;52.130;5.598;2024-01-15T14:09:30;1.70;1.00
23717;DHT22;22094;52.130;5.598;2024-01-15T14:12:00;2.10;1.00
23717;DHT22;22094;52.130;5.598;2024-01-15T14:14:26;3.30;99.90
23717;DHT22;22094;52.130;5.598;2024-01-15T14:16:51;3.00;99.90
23717;DHT22;22094;52.130;5.598;2024-01-15T14:19:17;2.40;1.00
23717;DHT22;22094;52.130;5.598;2024-01-15T14:21:43;2.00;1.00
23717;DHT22;22094;52.130;5.598;2024-01-15T14:24:09;1.90;99.90
23717;DHT22;22094;52.130;5.598;2024-01-15T14:26:34;2.20;99.90
23717;DHT22;22094;52.130;5.598;2024-01-15T14:29:00;2.40;1.00
23717;DHT22;22094;52.130;5.598;2024-01-15T14:31:26;3.40;1.00
23717;DHT22;22094;52.130;5.598;2024-01-15T14:33:54;2.90;1.00
23717;DHT22;22094;52.130;5.598;2024-01-15T14:36:20;2.60;1.00
23717;DHT22;22094;52.130;5.598;2024-01-15T14:38:46;3.30;1.00
23717;DHT22;22094;52.130;5.598;2024-01-15T14:41:12;2.40;1.00
23717;DHT22;22094;52.130;5.598;2024-01-15T14:43:37;2.60;1.00
23717;DHT22;22094;52.130;5.598;2024-01-15T14:46:03;2.90;1.00
23717;DHT22;22094;52.130;5.598;2024-01-15T14:48:28;3.10;1.00
23717;DHT22;22094;52.130;5.598;2024-01-15T14:50:55;3.10;1.00
23717;DHT22;22094;52.130;5.598;2024-01-15T14:53:20;2.90;1.00
23717;DHT22;22094;52.130;5.598;2024-01-15T14:55:46;2.60;1.00
23717;DHT22;22094;52.130;5.598;2024-01-15T14:58:12;2.50;1.00
23717;DHT22;22094;52.130;5.598;2024-01-15T15:00:37;2.40;99.90
23717;DHT22;22094;52.130;5.598;2024-01-15T15:03:03;2.20;1.00
23717;DHT22;22094;52.130;5.598;2024-01-15T15:05:29;2.20;91.10
23717;DHT22;22094;52.130;5.598;2024-01-15T15:07:54;2.10;99.90
23717;DHT22;22094;52.130;5.598;2024-01-15T15:10:20;2.10;99.90
23717;DHT22;22094;52.130;5.598;2024-01-15T15:12:46;2.10;99.90
23717;DHT22;22094;52.130;5.598;2024-01-15T15:15:11;2.00;1.00
23717;DHT22;22094;52.130;5.598;2024-01-15T15:17:37;1.90;1.00
23717;DHT22;22094;52.130;5.598;2024-01-15T15:20:05;1.80;99.90
23717;DHT22;22094;52.130;5.598;2024-01-15T15:22:31;1.80;1.00
23717;DHT22;22094;52.130;5.598;2024-01-15T15:24:57;1.80;99.90
23717;DHT22;22094;52.130;5.598;2024-01-15T15:27:22;1.70;1.00
23717;DHT22;22094;52.130;5.598;2024-01-15T15:29:48;1.70;1.00
23717;DHT22;22094;52.130;5.598;2024-01-15T15:32:15;1.70;1.00
23717;DHT22;22094;52.130;5.598;2024-01-15T15:34:41;1.60;99.90
23717;DHT22;22094;52.130;5.598;2024-01-15T15:37:06;1.60;1.00
23717;DHT22;22094;52.130;5.598;2024-01-15T15:39:32;1.60;1.00
23717;DHT22;22094;52.130;5.598;2024-01-15T15:41:57;1.60;37.90
23717;DHT22;22094;52.130;5.598;2024-01-15T15:44:23;1.60;99.90
23717;DHT22;22094;52.130;5.598;2024-01-15T15:46:49;1.70;99.90
23717;DHT22;22094;52.130;5.598;2024-01-15T15:49:14;1.60;99.90
23717;DHT22;22094;52.130;5.598;2024-01-15T15:51:40;1.70;99.90
23717;DHT22;22094;52.130;5.598;2024-01-15T15:54:06;1.80;1.00
23717;DHT22;22094;52.130;5.598;2024-01-15T15:56:35;1.90;1.00
23717;DHT22;22094;52.130;5.598;2024-01-15T15:59:04;2.00;1.00
23717;DHT22;22094;52.130;5.598;2024-01-15T16:01:31;2.00;1.00
23717;DHT22;22094;52.130;5.598;2024-01-15T16:03:56;2.10;99.90
23717;DHT22;22094;52.130;5.598;2024-01-15T16:06:22;2.00;99.90
23717;DHT22;22094;52.130;5.598;2024-01-15T16:08:47;1.90;1.00
23717;DHT22;22094;52.130;5.598;2024-01-15T16:11:16;1.80;1.00
23717;DHT22;22094;52.130;5.598;2024-01-15T16:13:41;1.70;1.00
23717;DHT22;22094;52.130;5.598;2024-01-15T16:16:07;1.60;99.90
23717;DHT22;22094;52.130;5.598;2024-01-15T16:18:32;1.50;1.00
23717;DHT22;22094;52.130;5.598;2024-01-15T16:20:58;1.40;99.90
23717;DHT22;22094;52.130;5.598;2024-01-15T16:23:24;1.40;1.00
23717;DHT22;22094;52.130;5.598;2024-01-15T16:25:49;1.40;1.00
23717;DHT22;22094;52.130;5.598;2024-01-15T16:28:15;1.30;1.00
23717;DHT22;22094;52.130;5.598;2024-01-15T16:30:40;1.30;99.90
23717;DHT22;22094;52.130;5.598;2024-01-15T16:33:06;1.30;1.00
23717;DHT22;22094;52.130;5.598;2024-01-15T16:35:31;1.20;1.00
23717;DHT22;22094;52.130;5.598;2024-01-15T16:37:57;1.20;1.00
23717;DHT22;22094;52.130;5.598;2024-01-15T16:40:23;1.20;99.90
23717;DHT22;22094;52.130;5.598;2024-01-15T16:42:48;1.20;99.90
23717;DHT22;22094;52.130;5.598;2024-01-15T16:45:14;1.20;99.90
23717;DHT22;22094;52.130;5.598;2024-01-15T16:47:40;1.20;99.90
23717;DHT22;22094;52.130;5.598;2024-01-15T16:50:05;1.30;1.00
23717;DHT22;22094;52.130;5.598;2024-01-15T16:52:31;1.20;1.00
23717;DHT22;22094;52.130;5.598;2024-01-15T16:54:56;0.50;1.00
23717;DHT22;22094;52.130;5.598;2024-01-15T16:57:22;1.20;1.00
23717;DHT22;22094;52.130;5.598;2024-01-15T16:59:48;2.10;99.90
23717;DHT22;22094;52.130;5.598;2024-01-15T17:02:14;1.20;1.00
23717;DHT22;22094;52.130;5.598;2024-01-15T17:04:40;1.10;1.00
23717;DHT22;22094;52.130;5.598;2024-01-15T17:07:05;1.10;1.00
23717;DHT22;22094;52.130;5.598;2024-01-15T17:09:31;1.10;1.00
23717;DHT22;22094;52.130;5.598;2024-01-15T17:11:56;1.20;1.00
23717;DHT22;22094;52.130;5.598;2024-01-15T17:14:22;1.20;1.00
23717;DHT22;22094;52.130;5.598;2024-01-15T17:16:47;1.20;1.00
23717;DHT22;22094;52.130;5.598;2024-01-15T17:19:13;1.30;1.00
23717;DHT22;22094;52.130;5.598;2024-01-15T17:21:40;1.70;1.00
23717;DHT22;22094;52.130;5.598;2024-01-15T17:24:05;1.30;99.90
23717;DHT22;22094;52.130;5.598;2024-01-15T17:26:31;1.40;1.00
23717;DHT22;22094;52.130;5.598;2024-01-15T17:28:58;1.40;1.00
23717;DHT22;22094;52.130;5.598;2024-01-15T17:31:23;1.30;1.00
23717;DHT22;22094;52.130;5.598;2024-01-15T17:33:49;1.30;99.90
23717;DHT22;22094;52.130;5.598;2024-01-15T17:36:14;1.20;99.90
23717;DHT22;22094;52.130;5.598;2024-01-15T17:38:40;1.20;99.90
23717;DHT22;22094;52.130;5.598;2024-01-15T17:41:06;1.20;99.90
23717;DHT22;22094;52.130;5.598;2024-01-15T17:43:31;1.10;99.90
23717;DHT22;22094;52.130;5.598;2024-01-15T17:45:57;1.10;99.90
23717;DHT22;22094;52.130;5.598;2024-01-15T17:48:26;1.10;1.00
23717;DHT22;22094;52.130;5.598;2024-01-15T17:50:52;1.10;1.00
23717;DHT22;22094;52.130;5.598;2024-01-15T17:53:17;1.20;1.00
23717;DHT22;22094;52.130;5.598;2024-01-15T17:55:43;1.10;1.00
23717;DHT22;22094;52.130;5.598;2024-01-15T17:58:09;1.60;1.00
23717;DHT22;22094;52.130;5.598;2024-01-15T18:00:34;1.20;1.00
23717;DHT22;22094;52.130;5.598;2024-01-15T18:03:00;1.20;1.00
23717;DHT22;22094;52.130;5.598;2024-01-15T18:05:25;1.20;1.00